KBWI

Baltimore Washington International/Thurgood Marshall Airport

Airport
ICAO code
KBWI
IATA Code
BWI
Summary
ICAO Region
NAM
ICAO Territory
Location

Baltimore, Maryland,

Serving
Baltimore and Washington DC
Elevation
146 ft
Coordinates
39° 10' 24" N , 76° 40' 5" W
KCC
Airport WX
Cumulonimbus
Metar
Observation
KBWI 062154Z 35013G21KT 10SM BKN045 OVC060 08/M02 A3014 RMK AO2 SLP207 T00831017
Station
Baltimore, Baltimore-Washington International Airport
Date/Time
2023-02-06 22:54:00
Wind direction
350°
Wind speed
13 kts
Lowest cloud amount
broken clouds
Temperature
8.3°C
Dew point
-1.7°C
Humidity
49%
Weather condition
n/a

Description

International airport serving Baltimore and Washington DC.

Climatology

Humid “subtropical” climate (Köppen climate classification Cfa) - characterized by hot, humid summers and cool winters. Significant amounts of precipitation occur in all seasons in most areas. Winter rainfall (and sometimes snowfall) is associated with large storms that the westerlies steer from west to east. Most summer rainfall occurs during thunderstorms and occasional tropical storms (hurricanes).

Airport map

Aerial View

SKYbrary Partners:

Safety knowledge contributed by: